sensor_id;sensor_type;location;lat;lon;timestamp;P1;durP1;ratioP1;P2;durP2;ratioP2
64868;SDS011;51349;52.424;10.840;2022-12-20T00:00:14;9.93;;;7.03;;
64868;SDS011;51349;52.424;10.840;2022-12-20T00:05:15;10.53;;;7.53;;
64868;SDS011;51349;52.424;10.840;2022-12-20T00:10:15;9.97;;;7.30;;
64868;SDS011;51349;52.424;10.840;2022-12-20T00:15:16;10.67;;;7.67;;
64868;SDS011;51349;52.424;10.840;2022-12-20T00:20:16;8.63;;;7.27;;
64868;SDS011;51349;52.424;10.840;2022-12-20T00:25:17;8.97;;;7.47;;
64868;SDS011;51349;52.424;10.840;2022-12-20T00:30:19;12.60;;;7.97;;
64868;SDS011;51349;52.424;10.840;2022-12-20T00:35:20;9.53;;;7.17;;
64868;SDS011;51349;52.424;10.840;2022-12-20T00:40:20;9.40;;;7.47;;
64868;SDS011;51349;52.424;10.840;2022-12-20T00:45:21;8.60;;;7.07;;
64868;SDS011;51349;52.424;10.840;2022-12-20T00:50:22;10.37;;;7.50;;
64868;SDS011;51349;52.424;10.840;2022-12-20T00:55:22;8.70;;;5.73;;
64868;SDS011;51349;52.424;10.840;2022-12-20T01:00:23;8.10;;;7.17;;
64868;SDS011;51349;52.424;10.840;2022-12-20T01:05:24;8.77;;;6.83;;
64868;SDS011;51349;52.424;10.840;2022-12-20T01:10:24;8.03;;;6.63;;
64868;SDS011;51349;52.424;10.840;2022-12-20T01:15:26;7.70;;;6.90;;
64868;SDS011;51349;52.424;10.840;2022-12-20T01:20:27;7.47;;;6.37;;
64868;SDS011;51349;52.424;10.840;2022-12-20T01:25:28;7.67;;;6.60;;
64868;SDS011;51349;52.424;10.840;2022-12-20T01:30:29;9.77;;;6.87;;
64868;SDS011;51349;52.424;10.840;2022-12-20T01:35:29;8.80;;;7.10;;
64868;SDS011;51349;52.424;10.840;2022-12-20T01:40:30;7.83;;;7.03;;
64868;SDS011;51349;52.424;10.840;2022-12-20T01:45:30;7.43;;;6.50;;
64868;SDS011;51349;52.424;10.840;2022-12-20T01:50:31;8.30;;;7.47;;
64868;SDS011;51349;52.424;10.840;2022-12-20T01:55:33;9.60;;;7.70;;
64868;SDS011;51349;52.424;10.840;2022-12-20T02:00:34;8.63;;;6.97;;
64868;SDS011;51349;52.424;10.840;2022-12-20T02:05:37;8.90;;;6.97;;
64868;SDS011;51349;52.424;10.840;2022-12-20T02:15:57;8.57;;;7.33;;
64868;SDS011;51349;52.424;10.840;2022-12-20T02:21:05;8.63;;;6.70;;
64868;SDS011;51349;52.424;10.840;2022-12-20T02:31:49;7.97;;;7.03;;
64868;SDS011;51349;52.424;10.840;2022-12-20T02:37:02;11.17;;;7.30;;
64868;SDS011;51349;52.424;10.840;2022-12-20T02:42:06;9.30;;;6.40;;
64868;SDS011;51349;52.424;10.840;2022-12-20T02:47:10;9.00;;;6.90;;
64868;SDS011;51349;52.424;10.840;2022-12-20T02:52:14;8.03;;;7.07;;
64868;SDS011;51349;52.424;10.840;2022-12-20T03:02:26;7.97;;;6.63;;
64868;SDS011;51349;52.424;10.840;2022-12-20T03:07:49;8.37;;;6.83;;
64868;SDS011;51349;52.424;10.840;2022-12-20T03:12:49;8.67;;;7.10;;
64868;SDS011;51349;52.424;10.840;2022-12-20T03:17:50;8.30;;;6.80;;
64868;SDS011;51349;52.424;10.840;2022-12-20T03:22:51;7.57;;;6.77;;
64868;SDS011;51349;52.424;10.840;2022-12-20T03:27:51;9.67;;;6.67;;
64868;SDS011;51349;52.424;10.840;2022-12-20T03:32:52;7.37;;;6.67;;
64868;SDS011;51349;52.424;10.840;2022-12-20T03:37:52;8.20;;;6.60;;
64868;SDS011;51349;52.424;10.840;2022-12-20T03:42:54;9.10;;;6.60;;
64868;SDS011;51349;52.424;10.840;2022-12-20T03:47:55;7.93;;;6.80;;
64868;SDS011;51349;52.424;10.840;2022-12-20T03:52:55;8.20;;;6.47;;
64868;SDS011;51349;52.424;10.840;2022-12-20T03:57:56;7.93;;;7.10;;
64868;SDS011;51349;52.424;10.840;2022-12-20T04:02:56;7.30;;;6.60;;
64868;SDS011;51349;52.424;10.840;2022-12-20T04:07:58;6.83;;;6.13;;
64868;SDS011;51349;52.424;10.840;2022-12-20T04:12:59;8.90;;;6.53;;
64868;SDS011;51349;52.424;10.840;2022-12-20T04:17:59;6.67;;;5.77;;
64868;SDS011;51349;52.424;10.840;2022-12-20T04:23:00;9.97;;;6.47;;
64868;SDS011;51349;52.424;10.840;2022-12-20T04:28:00;6.60;;;5.90;;
64868;SDS011;51349;52.424;10.840;2022-12-20T04:33:01;7.17;;;5.93;;
64868;SDS011;51349;52.424;10.840;2022-12-20T04:38:03;8.23;;;6.23;;
64868;SDS011;51349;52.424;10.840;2022-12-20T04:43:04;7.50;;;6.73;;
64868;SDS011;51349;52.424;10.840;2022-12-20T04:48:05;7.93;;;6.43;;
64868;SDS011;51349;52.424;10.840;2022-12-20T04:53:05;6.73;;;6.13;;
64868;SDS011;51349;52.424;10.840;2022-12-20T04:58:24;6.20;;;5.50;;
64868;SDS011;51349;52.424;10.840;2022-12-20T05:03:25;6.70;;;5.60;;
64868;SDS011;51349;52.424;10.840;2022-12-20T05:08:26;5.57;;;4.97;;
64868;SDS011;51349;52.424;10.840;2022-12-20T05:13:27;6.47;;;5.57;;
64868;SDS011;51349;52.424;10.840;2022-12-20T05:18:27;6.10;;;5.30;;
64868;SDS011;51349;52.424;10.840;2022-12-20T05:23:28;6.53;;;5.80;;
64868;SDS011;51349;52.424;10.840;2022-12-20T05:28:47;9.30;;;5.80;;
64868;SDS011;51349;52.424;10.840;2022-12-20T05:33:48;6.27;;;4.87;;
64868;SDS011;51349;52.424;10.840;2022-12-20T05:38:49;7.13;;;5.60;;
64868;SDS011;51349;52.424;10.840;2022-12-20T05:43:49;6.53;;;5.57;;
64868;SDS011;51349;52.424;10.840;2022-12-20T05:48:50;6.13;;;5.43;;
64868;SDS011;51349;52.424;10.840;2022-12-20T05:53:51;5.63;;;5.03;;
64868;SDS011;51349;52.424;10.840;2022-12-20T05:58:52;6.67;;;5.67;;
64868;SDS011;51349;52.424;10.840;2022-12-20T06:03:52;7.80;;;5.37;;
64868;SDS011;51349;52.424;10.840;2022-12-20T06:08:53;5.97;;;5.37;;
64868;SDS011;51349;52.424;10.840;2022-12-20T06:13:55;10.57;;;6.30;;
64868;SDS011;51349;52.424;10.840;2022-12-20T06:18:55;6.73;;;6.00;;
64868;SDS011;51349;52.424;10.840;2022-12-20T06:23:56;7.60;;;6.60;;
64868;SDS011;51349;52.424;10.840;2022-12-20T06:28:56;6.53;;;5.37;;
64868;SDS011;51349;52.424;10.840;2022-12-20T06:34:01;7.77;;;5.67;;
64868;SDS011;51349;52.424;10.840;2022-12-20T06:39:01;6.73;;;5.87;;
64868;SDS011;51349;52.424;10.840;2022-12-20T06:44:02;8.40;;;6.10;;
64868;SDS011;51349;52.424;10.840;2022-12-20T06:49:03;7.00;;;5.90;;
64868;SDS011;51349;52.424;10.840;2022-12-20T06:54:03;7.30;;;6.27;;
64868;SDS011;51349;52.424;10.840;2022-12-20T06:59:04;8.70;;;6.20;;
64868;SDS011;51349;52.424;10.840;2022-12-20T07:04:05;6.53;;;5.90;;
64868;SDS011;51349;52.424;10.840;2022-12-20T07:09:05;6.83;;;6.10;;
64868;SDS011;51349;52.424;10.840;2022-12-20T07:14:06;7.23;;;6.07;;
64868;SDS011;51349;52.424;10.840;2022-12-20T07:19:09;6.93;;;6.20;;
64868;SDS011;51349;52.424;10.840;2022-12-20T07:24:10;6.33;;;5.73;;
64868;SDS011;51349;52.424;10.840;2022-12-20T07:29:11;7.13;;;6.40;;
64868;SDS011;51349;52.424;10.840;2022-12-20T07:34:12;7.17;;;6.47;;
64868;SDS011;51349;52.424;10.840;2022-12-20T07:39:13;7.47;;;5.93;;
64868;SDS011;51349;52.424;10.840;2022-12-20T07:44:13;7.33;;;6.20;;
64868;SDS011;51349;52.424;10.840;2022-12-20T07:49:14;5.97;;;5.40;;
64868;SDS011;51349;52.424;10.840;2022-12-20T07:54:16;6.37;;;5.70;;
64868;SDS011;51349;52.424;10.840;2022-12-20T07:59:22;6.67;;;5.83;;
64868;SDS011;51349;52.424;10.840;2022-12-20T08:04:26;8.40;;;5.80;;
64868;SDS011;51349;52.424;10.840;2022-12-20T08:09:30;6.67;;;5.67;;
64868;SDS011;51349;52.424;10.840;2022-12-20T08:14:36;8.10;;;6.13;;
64868;SDS011;51349;52.424;10.840;2022-12-20T08:19:37;6.17;;;5.63;;
64868;SDS011;51349;52.424;10.840;2022-12-20T08:24:38;8.77;;;5.87;;
64868;SDS011;51349;52.424;10.840;2022-12-20T08:29:38;7.17;;;5.80;;
64868;SDS011;51349;52.424;10.840;2022-12-20T08:34:39;8.43;;;6.37;;
64868;SDS011;51349;52.424;10.840;2022-12-20T08:39:40;6.37;;;5.70;;
64868;SDS011;51349;52.424;10.840;2022-12-20T08:44:40;7.20;;;6.50;;
64868;SDS011;51349;52.424;10.840;2022-12-20T08:49:41;6.13;;;5.30;;
64868;SDS011;51349;52.424;10.840;2022-12-20T08:54:42;6.23;;;5.43;;
64868;SDS011;51349;52.424;10.840;2022-12-20T08:59:42;8.37;;;5.90;;
64868;SDS011;51349;52.424;10.840;2022-12-20T09:04:43;6.70;;;6.03;;
64868;SDS011;51349;52.424;10.840;2022-12-20T09:09:45;6.97;;;6.27;;
64868;SDS011;51349;52.424;10.840;2022-12-20T09:14:45;7.67;;;5.50;;
64868;SDS011;51349;52.424;10.840;2022-12-20T09:19:46;5.77;;;5.27;;
64868;SDS011;51349;52.424;10.840;2022-12-20T09:24:48;6.30;;;5.70;;
64868;SDS011;51349;52.424;10.840;2022-12-20T09:29:48;6.50;;;5.47;;
64868;SDS011;51349;52.424;10.840;2022-12-20T09:34:49;6.47;;;5.87;;
64868;SDS011;51349;52.424;10.840;2022-12-20T09:39:49;8.50;;;6.93;;
64868;SDS011;51349;52.424;10.840;2022-12-20T09:44:50;6.93;;;5.90;;
64868;SDS011;51349;52.424;10.840;2022-12-20T09:49:53;8.10;;;6.03;;
64868;SDS011;51349;52.424;10.840;2022-12-20T10:00:27;8.67;;;7.73;;
64868;SDS011;51349;52.424;10.840;2022-12-20T10:10:47;7.57;;;6.70;;
64868;SDS011;51349;52.424;10.840;2022-12-20T10:16:09;6.97;;;6.17;;
64868;SDS011;51349;52.424;10.840;2022-12-20T10:21:39;6.93;;;6.27;;
64868;SDS011;51349;52.424;10.840;2022-12-20T10:26:50;6.33;;;5.23;;
64868;SDS011;51349;52.424;10.840;2022-12-20T10:31:51;6.87;;;4.87;;
64868;SDS011;51349;52.424;10.840;2022-12-20T10:37:13;5.00;;;4.60;;
64868;SDS011;51349;52.424;10.840;2022-12-20T10:42:36;4.73;;;4.10;;
64868;SDS011;51349;52.424;10.840;2022-12-20T10:47:44;4.73;;;4.00;;
64868;SDS011;51349;52.424;10.840;2022-12-20T10:52:45;5.83;;;4.30;;
64868;SDS011;51349;52.424;10.840;2022-12-20T10:58:15;5.03;;;4.27;;
64868;SDS011;51349;52.424;10.840;2022-12-20T11:03:34;6.43;;;4.33;;
64868;SDS011;51349;52.424;10.840;2022-12-20T11:08:52;4.40;;;4.03;;
64868;SDS011;51349;52.424;10.840;2022-12-20T11:13:53;5.17;;;3.83;;
64868;SDS011;51349;52.424;10.840;2022-12-20T11:19:24;4.17;;;3.77;;
64868;SDS011;51349;52.424;10.840;2022-12-20T11:30:18;4.27;;;3.97;;
64868;SDS011;51349;52.424;10.840;2022-12-20T11:35:24;4.10;;;3.70;;
64868;SDS011;51349;52.424;10.840;2022-12-20T11:40:32;4.07;;;3.73;;
64868;SDS011;51349;52.424;10.840;2022-12-20T11:51:22;4.13;;;3.77;;
64868;SDS011;51349;52.424;10.840;2022-12-20T12:01:37;3.10;;;2.90;;
64868;SDS011;51349;52.424;10.840;2022-12-20T12:06:43;3.93;;;2.90;;
64868;SDS011;51349;52.424;10.840;2022-12-20T12:12:08;3.73;;;3.43;;
64868;SDS011;51349;52.424;10.840;2022-12-20T12:22:29;8.20;;;5.97;;
64868;SDS011;51349;52.424;10.840;2022-12-20T12:27:35;3.20;;;2.97;;
64868;SDS011;51349;52.424;10.840;2022-12-20T12:32:37;3.00;;;2.80;;
64868;SDS011;51349;52.424;10.840;2022-12-20T12:48:02;3.73;;;2.67;;
64868;SDS011;51349;52.424;10.840;2022-12-20T12:53:18;3.40;;;2.90;;
64868;SDS011;51349;52.424;10.840;2022-12-20T13:34:57;3.30;;;3.00;;
64868;SDS011;51349;52.424;10.840;2022-12-20T13:39:58;3.13;;;2.80;;
64868;SDS011;51349;52.424;10.840;2022-12-20T13:45:00;2.97;;;2.77;;
64868;SDS011;51349;52.424;10.840;2022-12-20T13:55:35;4.10;;;3.17;;
64868;SDS011;51349;52.424;10.840;2022-12-20T14:00:37;4.63;;;3.77;;
64868;SDS011;51349;52.424;10.840;2022-12-20T14:05:38;3.03;;;2.83;;
64868;SDS011;51349;52.424;10.840;2022-12-20T14:10:39;4.33;;;2.80;;
64868;SDS011;51349;52.424;10.840;2022-12-20T14:15:40;3.40;;;2.67;;
64868;SDS011;51349;52.424;10.840;2022-12-20T14:20:41;3.60;;;3.10;;
64868;SDS011;51349;52.424;10.840;2022-12-20T14:25:47;3.90;;;3.50;;
64868;SDS011;51349;52.424;10.840;2022-12-20T14:30:58;4.72;;;3.65;;
64868;SDS011;51349;52.424;10.840;2022-12-20T14:36:33;3.60;;;3.30;;
64868;SDS011;51349;52.424;10.840;2022-12-20T14:46:33;3.10;;;2.80;;
64868;SDS011;51349;52.424;10.840;2022-12-20T14:51:34;3.13;;;2.83;;
64868;SDS011;51349;52.424;10.840;2022-12-20T14:56:35;3.50;;;3.03;;
64868;SDS011;51349;52.424;10.840;2022-12-20T15:01:36;3.33;;;3.10;;
64868;SDS011;51349;52.424;10.840;2022-12-20T15:06:38;3.27;;;2.97;;
64868;SDS011;51349;52.424;10.840;2022-12-20T15:11:42;4.13;;;3.03;;
64868;SDS011;51349;52.424;10.840;2022-12-20T15:16:45;4.23;;;3.13;;
64868;SDS011;51349;52.424;10.840;2022-12-20T15:21:49;5.33;;;3.00;;
64868;SDS011;51349;52.424;10.840;2022-12-20T15:26:51;3.20;;;2.95;;
64868;SDS011;51349;52.424;10.840;2022-12-20T15:31:55;3.20;;;2.90;;
64868;SDS011;51349;52.424;10.840;2022-12-20T15:37:03;2.90;;;2.67;;
64868;SDS011;51349;52.424;10.840;2022-12-20T15:42:05;2.67;;;2.47;;
64868;SDS011;51349;52.424;10.840;2022-12-20T15:47:09;3.27;;;2.97;;
64868;SDS011;51349;52.424;10.840;2022-12-20T15:52:15;3.03;;;2.67;;
64868;SDS011;51349;52.424;10.840;2022-12-20T15:57:19;3.63;;;3.00;;
64868;SDS011;51349;52.424;10.840;2022-12-20T16:07:25;4.23;;;3.00;;
64868;SDS011;51349;52.424;10.840;2022-12-20T16:12:27;5.47;;;3.80;;
64868;SDS011;51349;52.424;10.840;2022-12-20T16:17:33;3.23;;;2.93;;
64868;SDS011;51349;52.424;10.840;2022-12-20T16:22:33;3.90;;;2.83;;
64868;SDS011;51349;52.424;10.840;2022-12-20T16:27:34;3.57;;;3.13;;
64868;SDS011;51349;52.424;10.840;2022-12-20T16:32:35;3.93;;;3.50;;
64868;SDS011;51349;52.424;10.840;2022-12-20T16:37:35;7.67;;;3.40;;
64868;SDS011;51349;52.424;10.840;2022-12-20T16:42:36;4.00;;;3.70;;
64868;SDS011;51349;52.424;10.840;2022-12-20T16:47:36;4.00;;;3.70;;
64868;SDS011;51349;52.424;10.840;2022-12-20T16:52:38;3.73;;;3.37;;
64868;SDS011;51349;52.424;10.840;2022-12-20T16:57:39;3.83;;;3.47;;
64868;SDS011;51349;52.424;10.840;2022-12-20T17:02:39;4.13;;;3.73;;
64868;SDS011;51349;52.424;10.840;2022-12-20T17:07:40;3.70;;;3.40;;
64868;SDS011;51349;52.424;10.840;2022-12-20T17:12:41;4.97;;;3.57;;
64868;SDS011;51349;52.424;10.840;2022-12-20T17:17:41;3.97;;;3.67;;
64868;SDS011;51349;52.424;10.840;2022-12-20T17:22:42;4.20;;;3.80;;
64868;SDS011;51349;52.424;10.840;2022-12-20T17:27:44;3.90;;;3.60;;
64868;SDS011;51349;52.424;10.840;2022-12-20T17:32:44;3.80;;;3.50;;
64868;SDS011;51349;52.424;10.840;2022-12-20T17:37:46;4.33;;;3.90;;
64868;SDS011;51349;52.424;10.840;2022-12-20T17:42:47;4.70;;;3.97;;
64868;SDS011;51349;52.424;10.840;2022-12-20T17:47:48;4.20;;;3.70;;
64868;SDS011;51349;52.424;10.840;2022-12-20T17:52:49;5.60;;;3.40;;
64868;SDS011;51349;52.424;10.840;2022-12-20T17:57:51;4.60;;;3.63;;
64868;SDS011;51349;52.424;10.840;2022-12-20T18:02:53;5.00;;;4.50;;
64868;SDS011;51349;52.424;10.840;2022-12-20T18:07:54;5.03;;;4.07;;
64868;SDS011;51349;52.424;10.840;2022-12-20T18:12:55;4.20;;;3.80;;
64868;SDS011;51349;52.424;10.840;2022-12-20T18:17:55;4.40;;;4.00;;
64868;SDS011;51349;52.424;10.840;2022-12-20T18:22:56;5.67;;;3.90;;
64868;SDS011;51349;52.424;10.840;2022-12-20T18:27:57;6.90;;;3.90;;
64868;SDS011;51349;52.424;10.840;2022-12-20T18:32:57;5.30;;;4.30;;
64868;SDS011;51349;52.424;10.840;2022-12-20T18:37:58;6.27;;;4.90;;
64868;SDS011;51349;52.424;10.840;2022-12-20T18:42:58;4.60;;;4.20;;
64868;SDS011;51349;52.424;10.840;2022-12-20T18:47:59;4.43;;;4.13;;
64868;SDS011;51349;52.424;10.840;2022-12-20T18:53:00;6.37;;;4.30;;
64868;SDS011;51349;52.424;10.840;2022-12-20T18:58:00;4.83;;;4.43;;
64868;SDS011;51349;52.424;10.840;2022-12-20T19:03:01;4.80;;;4.40;;
64868;SDS011;51349;52.424;10.840;2022-12-20T19:08:02;5.50;;;4.87;;
64868;SDS011;51349;52.424;10.840;2022-12-20T19:13:02;4.80;;;4.27;;
64868;SDS011;51349;52.424;10.840;2022-12-20T19:18:03;6.10;;;4.77;;
64868;SDS011;51349;52.424;10.840;2022-12-20T19:23:05;6.30;;;5.23;;
64868;SDS011;51349;52.424;10.840;2022-12-20T19:28:06;6.67;;;6.07;;
64868;SDS011;51349;52.424;10.840;2022-12-20T19:33:07;7.10;;;6.40;;
64868;SDS011;51349;52.424;10.840;2022-12-20T19:38:08;7.70;;;6.00;;
64868;SDS011;51349;52.424;10.840;2022-12-20T19:43:08;6.47;;;5.20;;
64868;SDS011;51349;52.424;10.840;2022-12-20T19:48:09;7.03;;;4.67;;
64868;SDS011;51349;52.424;10.840;2022-12-20T19:53:10;5.70;;;4.93;;
64868;SDS011;51349;52.424;10.840;2022-12-20T19:58:11;5.17;;;4.67;;
64868;SDS011;51349;52.424;10.840;2022-12-20T20:03:11;6.40;;;5.07;;
64868;SDS011;51349;52.424;10.840;2022-12-20T20:08:12;5.87;;;5.37;;
64868;SDS011;51349;52.424;10.840;2022-12-20T20:13:14;6.13;;;5.10;;
64868;SDS011;51349;52.424;10.840;2022-12-20T20:18:16;5.60;;;5.10;;
64868;SDS011;51349;52.424;10.840;2022-12-20T20:23:16;5.93;;;5.33;;
64868;SDS011;51349;52.424;10.840;2022-12-20T20:28:19;5.57;;;5.07;;
64868;SDS011;51349;52.424;10.840;2022-12-20T20:33:20;8.07;;;5.37;;
64868;SDS011;51349;52.424;10.840;2022-12-20T20:38:21;5.60;;;5.17;;
64868;SDS011;51349;52.424;10.840;2022-12-20T20:43:22;6.20;;;5.60;;
64868;SDS011;51349;52.424;10.840;2022-12-20T20:48:23;6.23;;;5.13;;
64868;SDS011;51349;52.424;10.840;2022-12-20T20:53:24;5.73;;;5.03;;
64868;SDS011;51349;52.424;10.840;2022-12-20T20:58:25;6.63;;;5.53;;
64868;SDS011;51349;52.424;10.840;2022-12-20T21:03:26;6.77;;;5.43;;
64868;SDS011;51349;52.424;10.840;2022-12-20T21:08:28;6.77;;;5.50;;
64868;SDS011;51349;52.424;10.840;2022-12-20T21:13:29;5.50;;;5.00;;
64868;SDS011;51349;52.424;10.840;2022-12-20T21:18:30;7.63;;;6.30;;
64868;SDS011;51349;52.424;10.840;2022-12-20T21:23:30;6.50;;;5.90;;
64868;SDS011;51349;52.424;10.840;2022-12-20T21:28:31;7.03;;;5.57;;
64868;SDS011;51349;52.424;10.840;2022-12-20T21:33:31;5.83;;;5.23;;
64868;SDS011;51349;52.424;10.840;2022-12-20T21:38:32;6.17;;;5.40;;
64868;SDS011;51349;52.424;10.840;2022-12-20T21:43:33;6.90;;;5.00;;
64868;SDS011;51349;52.424;10.840;2022-12-20T21:48:34;5.53;;;5.03;;
64868;SDS011;51349;52.424;10.840;2022-12-20T21:53:35;5.60;;;4.67;;
64868;SDS011;51349;52.424;10.840;2022-12-20T21:58:49;4.60;;;4.30;;
64868;SDS011;51349;52.424;10.840;2022-12-20T22:03:55;5.27;;;4.40;;
64868;SDS011;51349;52.424;10.840;2022-12-20T22:09:01;5.03;;;4.30;;
64868;SDS011;51349;52.424;10.840;2022-12-20T22:14:05;4.80;;;4.23;;
64868;SDS011;51349;52.424;10.840;2022-12-20T22:19:06;3.93;;;3.63;;
64868;SDS011;51349;52.424;10.840;2022-12-20T22:24:08;4.73;;;4.20;;
64868;SDS011;51349;52.424;10.840;2022-12-20T22:29:09;4.87;;;4.27;;
64868;SDS011;51349;52.424;10.840;2022-12-20T22:34:10;3.93;;;3.50;;
64868;SDS011;51349;52.424;10.840;2022-12-20T22:39:10;4.60;;;4.20;;
64868;SDS011;51349;52.424;10.840;2022-12-20T22:44:13;4.00;;;3.57;;
64868;SDS011;51349;52.424;10.840;2022-12-20T22:49:17;5.37;;;4.87;;
64868;SDS011;51349;52.424;10.840;2022-12-20T22:54:17;6.23;;;5.50;;
64868;SDS011;51349;52.424;10.840;2022-12-20T22:59:18;6.97;;;5.03;;
64868;SDS011;51349;52.424;10.840;2022-12-20T23:04:19;6.23;;;5.63;;
64868;SDS011;51349;52.424;10.840;2022-12-20T23:09:22;5.80;;;5.30;;
64868;SDS011;51349;52.424;10.840;2022-12-20T23:14:23;6.17;;;5.40;;
64868;SDS011;51349;52.424;10.840;2022-12-20T23:19:42;6.97;;;5.70;;
64868;SDS011;51349;52.424;10.840;2022-12-20T23:25:01;6.80;;;6.10;;
64868;SDS011;51349;52.424;10.840;2022-12-20T23:30:19;6.77;;;6.07;;
64868;SDS011;51349;52.424;10.840;2022-12-20T23:35:22;6.27;;;5.73;;
64868;SDS011;51349;52.424;10.840;2022-12-20T23:40:24;5.80;;;5.30;;
64868;SDS011;51349;52.424;10.840;2022-12-20T23:45:25;6.53;;;5.63;;
64868;SDS011;51349;52.424;10.840;2022-12-20T23:50:25;5.90;;;5.33;;
64868;SDS011;51349;52.424;10.840;2022-12-20T23:55:26;6.83;;;6.10;;
